M.s. Sonoma — WZC8517 — position and weather

sailwx.info

Track history (hours):
 
Tides and Currents Weather Stations Pressure Air Temp Water Temp Dewpoint Dewpoint Depression Visibility Wind Speed Wind Dir Waves Ship Positions

M.s. Sonoma

Owner: GOLDEN GATE BRIDGE HWY & TRANSP DIST, LARKSPUR, CA. More information available from US FCC via Universal Licensing System and Coast Guard Vessel Documentation Center.

Last reported at 2017-Dec-15 22:03 UTC. Time now 2017-Dec-18 05:20 UTC.
Position N 37°57' W 122°31'.

Length 56 m.

Type: Passenger vessel. MMSI: 366969970.

Date/timePositionNaut miles runAvg speedWind from/ knotsBaromVisibWave heightAir tempDewpointWater temp
2017-Dec-15 22:03N 37°57' W 122°31'0 0.2
2017-Dec-15 22:00N 37°57' W 122°31'510.4
2017-Dec-15 21:30N 37°53' W 122°26'3 5.5
2017-Dec-15 21:00N 37°51' W 122°29'0 1.0
2017-Dec-15 20:30N 37°51' W 122°28'0 0.3
2017-Dec-15 20:01N 37°51' W 122°28'1 1.3
2017-Dec-15 19:30N 37°51' W 122°29'0 0.0
2017-Dec-15 19:00N 37°51' W 122°29'0 0.0
2017-Dec-15 18:30N 37°51' W 122°29'511.2
2017-Dec-15 18:00N 37°48' W 122°24'0 0.0
2017-Dec-15 17:30N 37°48' W 122°24'0 0.0
2017-Dec-15 17:00N 37°48' W 122°24'3 6.3
2017-Dec-15 16:30N 37°50' W 122°26'1 2.2
2017-Dec-15 16:01N 37°51' W 122°27'4 8.0
2017-Dec-15 15:31N 37°48' W 122°23'510.5
2017-Dec-15 15:00N 37°51' W 122°29'510.2
2017-Dec-15 14:30N 37°56' W 122°30'1 0.1
2017-Dec-15 05:13N 37°57' W 122°31'1 4.6
2017-Dec-15 05:00N 37°56' W 122°29'5 9.8
2017-Dec-15 04:31N 37°51' W 122°29'510.6
2017-Dec-15 04:00N 37°48' W 122°23'0 0.1
2017-Dec-15 02:31N 37°48' W 122°23'2 1.4
2017-Dec-15 01:01N 37°50' W 122°24'4 7.3
2017-Dec-15 00:30N 37°51' W 122°29'0 0.0
2017-Dec-14 18:30N 37°51' W 122°29'510.9
2017-Dec-14 18:00N 37°48' W 122°24'0 0.0
2017-Dec-14 17:31N 37°48' W 122°24'0 0.0
2017-Dec-14 17:00N 37°48' W 122°24'3 6.2
2017-Dec-14 16:30N 37°50' W 122°26'2 3.3
2017-Dec-14 16:01N 37°51' W 122°28'1 0.9
2017-Dec-14 15:01N 37°51' W 122°29'510.0
2017-Dec-14 14:30N 37°56' W 122°30'1 0.1
2017-Dec-14 05:24N 37°57' W 122°31'2 3.9
2017-Dec-14 05:00N 37°56' W 122°29'5 9.3
2017-Dec-14 04:30N 37°51' W 122°29'511.0
2017-Dec-14 04:00N 37°48' W 122°23'4 8.8
2017-Dec-14 03:30N 37°51' W 122°27'2 4.3
2017-Dec-14 03:00N 37°50' W 122°25'2 4.9
2017-Dec-14 02:30N 37°48' W 122°23'510.7
2017-Dec-14 02:00N 37°51' W 122°29'510.8
2017-Dec-14 01:30N 37°48' W 122°24'2 4.5
2017-Dec-14 01:00N 37°50' W 122°25'4 7.2
2017-Dec-14 00:30N 37°51' W 122°29'510.9
2017-Dec-14 00:00N 37°48' W 122°24'4 8.5
2017-Dec-13 23:30N 37°51' W 122°27'1 2.4
2017-Dec-13 23:00N 37°51' W 122°28'510.5
2017-Dec-13 22:31N 37°48' W 122°24'510.6
2017-Dec-13 22:01N 37°51' W 122°29'0 0.2
2017-Dec-13 21:30N 37°51' W 122°29'510.7
2017-Dec-13 21:01N 37°48' W 122°23'2 4.6
2017-Dec-13 20:30N 37°50' W 122°25'3 6.1
2017-Dec-13 20:00N 37°51' W 122°29'510.9
2017-Dec-13 19:30N 37°48' W 122°24'510.1
2017-Dec-13 19:01N 37°51' W 122°28'0 0.9
2017-Dec-13 18:30N 37°51' W 122°29'510.9
2017-Dec-13 18:00N 37°48' W 122°24'0 0.0
2017-Dec-13 17:30N 37°48' W 122°24'0 0.0
2017-Dec-13 17:00N 37°48' W 122°24'3 6.4
2017-Dec-13 16:31N 37°50' W 122°26'1 1.5
2017-Dec-13 16:00N 37°51' W 122°27'4 7.2
2017-Dec-13 15:30N 37°48' W 122°23'510.4
2017-Dec-13 15:00N 37°51' W 122°29'510.1
2017-Dec-13 14:30N 37°56' W 122°30'0 0.0
2017-Dec-13 05:01N 37°57' W 122°30'012.2
2017-Dec-13 05:00N 37°56' W 122°30'510.8
2017-Dec-13 04:30N 37°51' W 122°28'5 9.5
2017-Dec-13 04:00N 37°48' W 122°23'3 6.1
2017-Dec-13 03:30N 37°50' W 122°26'1 1.0
2017-Dec-13 03:00N 37°51' W 122°26'3 6.4
2017-Dec-13 02:30N 37°48' W 122°23'510.4
2017-Dec-13 02:00N 37°51' W 122°29'510.9
2017-Dec-13 01:30N 37°48' W 122°24'2 3.9
2017-Dec-13 01:01N 37°49' W 122°25'4 7.3
2017-Dec-13 00:31N 37°51' W 122°29'510.8
2017-Dec-13 00:00N 37°48' W 122°24'3 7.0
2017-Dec-12 23:30N 37°50' W 122°27'2 4.0
2017-Dec-12 23:01N 37°51' W 122°29'510.8
2017-Dec-12 22:30N 37°48' W 122°24'510.7
2017-Dec-12 22:00N 37°51' W 122°29'2 3.8
2017-Dec-12 21:30N 37°52' W 122°26'510.7
2017-Dec-12 21:00N 37°57' W 122°30'0 0.1
2017-Dec-12 19:47N 37°57' W 122°31'2 6.8
2017-Dec-12 19:30N 37°56' W 122°28'713.2
2017-Dec-12 19:00N 37°50' W 122°24'3 5.1
2017-Dec-12 18:31N 37°48' W 122°24'0 0.0
2017-Dec-12 18:01N 37°48' W 122°24'0 0.2
2017-Dec-12 17:30N 37°48' W 122°24'0 0.2
2017-Dec-12 17:01N 37°48' W 122°24'4 7.6
2017-Dec-12 16:30N 37°51' W 122°27'1 1.3
2017-Dec-12 16:00N 37°51' W 122°26'3 5.5
2017-Dec-12 15:31N 37°49' W 122°23'4 8.8
2017-Dec-12 15:00N 37°51' W 122°28'510.8
2017-Dec-12 14:30N 37°56' W 122°30'0 0.0
2017-Dec-12 05:12N 37°57' W 122°31'1 4.7
2017-Dec-12 05:00N 37°56' W 122°30'510.1
2017-Dec-12 04:31N 37°51' W 122°28'510.4
2017-Dec-12 04:01N 37°48' W 122°23'3 6.0
2017-Dec-12 03:30N 37°50' W 122°26'0 1.0
2017-Dec-12 03:00N 37°51' W 122°25'3 5.8
2017-Dec-12 02:31N 37°48' W 122°23'510.5
2017-Dec-12 02:00N 37°51' W 122°29'510.8
2017-Dec-12 01:30N 37°48' W 122°24'2 4.3
2017-Dec-12 01:00N 37°50' W 122°25'3 6.9
2017-Dec-12 00:30N 37°51' W 122°29'510.9
2017-Dec-12 00:00N 37°48' W 122°24'4 7.8
2017-Dec-11 23:30N 37°51' W 122°27'2 3.3
2017-Dec-11 23:00N 37°51' W 122°29'510.8
2017-Dec-11 22:30N 37°48' W 122°24'510.6
2017-Dec-11 22:01N 37°51' W 122°28'0 0.3
2017-Dec-11 21:30N 37°51' W 122°29'510.9
2017-Dec-11 21:01N 37°48' W 122°23'2 4.8
2017-Dec-11 20:31N 37°50' W 122°25'3 5.8
2017-Dec-11 20:00N 37°51' W 122°28'510.4
2017-Dec-11 19:30N 37°48' W 122°24'510.5
2017-Dec-11 19:01N 37°51' W 122°28'0 0.1
2017-Dec-11 18:30N 37°51' W 122°28'510.5
2017-Dec-11 18:01N 37°48' W 122°23'1 2.3
2017-Dec-11 17:31N 37°49' W 122°24'4 8.3
2017-Dec-11 17:00N 37°52' W 122°27'510.7
2017-Dec-11 16:30N 37°48' W 122°24'510.8
2017-Dec-11 16:00N 37°52' W 122°27'4 7.5
2017-Dec-11 15:31N 37°50' W 122°24'1 1.6
2017-Dec-11 15:00N 37°50' W 122°25'2 4.7
2017-Dec-11 14:30N 37°51' W 122°27'3 6.2
2017-Dec-11 14:01N 37°49' W 122°24'5 9.8
2017-Dec-11 13:30N 37°54' W 122°27'4 0.4
2017-Dec-11 03:09N 37°57' W 122°30'211.1
2017-Dec-11 03:00N 37°56' W 122°28'917.6
2017-Dec-11 02:31N 37°48' W 122°23'0 0.4
2017-Dec-11 02:00N 37°48' W 122°23'510.5
2017-Dec-11 01:30N 37°51' W 122°29'1 1.5
2017-Dec-11 01:00N 37°51' W 122°28'5 9.6
2017-Dec-11 00:31N 37°48' W 122°24'3 6.6
2017-Dec-11 00:01N 37°50' W 122°26'2 4.4
2017-Dec-10 23:30N 37°51' W 122°29'4 8.9
2017-Dec-10 23:00N 37°49' W 122°24'1 1.1
2017-Dec-10 22:30N 37°49' W 122°24'5 9.4
2017-Dec-10 22:00N 37°51' W 122°29'510.9
2017-Dec-10 21:31N 37°48' W 122°23'2 4.2
2017-Dec-10 21:00N 37°50' W 122°25'3 6.7
2017-Dec-10 20:30N 37°51' W 122°29'510.9
2017-Dec-10 20:00N 37°48' W 122°24'4 7.8
2017-Dec-10 19:31N 37°51' W 122°27'1 1.7
2017-Dec-10 19:00N 37°51' W 122°28'5 9.5
2017-Dec-10 18:31N 37°48' W 122°24'611.1
2017-Dec-10 18:00N 37°53' W 122°26'510.1
2017-Dec-10 17:30N 37°57' W 122°30'1 0.0
2017-Dec-10 04:11N 37°56' W 122°30'210.6
2017-Dec-10 04:00N 37°56' W 122°28'816.9
2017-Dec-10 03:30N 37°48' W 122°24'4 7.8
2017-Dec-10 03:01N 37°50' W 122°27'2 3.1
2017-Dec-10 02:30N 37°51' W 122°29'510.9
2017-Dec-10 02:00N 37°48' W 122°24'0 0.2
2017-Dec-10 01:30N 37°48' W 122°24'918.1
2017-Dec-10 01:01N 37°56' W 122°29'2 3.1
2017-Dec-10 00:30N 37°57' W 122°30'714.9
2017-Dec-10 00:00N 37°51' W 122°24'3 6.8
2017-Dec-09 23:31N 37°48' W 122°24'0 0.1
2017-Dec-09 23:00N 37°48' W 122°24'0 0.0
2017-Dec-09 22:30N 37°48' W 122°24'815.7
2017-Dec-09 22:00N 37°55' W 122°27'3 5.7
2017-Dec-09 21:29N 37°57' W 122°30'612.0
2017-Dec-09 21:01N 37°53' W 122°25'510.1
2017-Dec-09 20:31N 37°48' W 122°24'918.0
2017-Dec-09 20:00N 37°56' W 122°29'2 3.3
2017-Dec-09 19:30N 37°57' W 122°30'0 0.0
2017-Dec-09 19:00N 37°57' W 122°30'0 0.0
2017-Dec-09 05:37N 37°57' W 122°30'0 0.0
2017-Dec-09 05:30N 37°57' W 122°30'1 2.5
2017-Dec-09 05:00N 37°56' W 122°29'5 9.4
2017-Dec-09 04:31N 37°51' W 122°29'510.8
2017-Dec-09 04:01N 37°48' W 122°24'5 9.0
2017-Dec-09 03:31N 37°51' W 122°28'1 2.9
2017-Dec-09 03:00N 37°51' W 122°26'3 5.4
2017-Dec-09 02:31N 37°49' W 122°23'5 9.8
2017-Dec-09 02:00N 37°51' W 122°29'511.1
2017-Dec-09 01:30N 37°48' W 122°24'2 4.7
2017-Dec-09 01:00N 37°50' W 122°25'3 6.8
2017-Dec-09 00:30N 37°51' W 122°28'510.5
2017-Dec-09 00:00N 37°48' W 122°24'510.6
2017-Dec-08 23:30N 37°51' W 122°28'3 5.6
2017-Dec-08 23:00N 37°53' W 122°26'5 9.2
2017-Dec-08 22:30N 37°57' W 122°31'  
Track history (hours):
 
Tides and Currents Weather Stations Pressure Air Temp Water Temp Dewpoint Dewpoint Depression Visibility Wind Speed Wind Dir Waves Ship Positions

M.s. Sonoma

Owner: GOLDEN GATE BRIDGE HWY & TRANSP DIST, LARKSPUR, CA. More information available from US FCC via Universal Licensing System and Coast Guard Vessel Documentation Center.

Last reported at 2017-Dec-15 22:03 UTC. Time now 2017-Dec-18 05:20 UTC.
Position N 37°57' W 122°31'.

Length 56 m.

Type: Passenger vessel. MMSI: 366969970.

Date/timePositionNaut miles runAvg speedWind from/ knotsBaromVisibWave heightAir tempDewpointWater temp
2017-Dec-15 22:03N 37°57' W 122°31'0 0.2
2017-Dec-15 22:00N 37°57' W 122°31'510.4
2017-Dec-15 21:30N 37°53' W 122°26'3 5.5
2017-Dec-15 21:00N 37°51' W 122°29'0 1.0
2017-Dec-15 20:30N 37°51' W 122°28'0 0.3
2017-Dec-15 20:01N 37°51' W 122°28'1 1.3
2017-Dec-15 19:30N 37°51' W 122°29'0 0.0
2017-Dec-15 19:00N 37°51' W 122°29'0 0.0
2017-Dec-15 18:30N 37°51' W 122°29'511.2
2017-Dec-15 18:00N 37°48' W 122°24'0 0.0
2017-Dec-15 17:30N 37°48' W 122°24'0 0.0
2017-Dec-15 17:00N 37°48' W 122°24'3 6.3
2017-Dec-15 16:30N 37°50' W 122°26'1 2.2
2017-Dec-15 16:01N 37°51' W 122°27'4 8.0
2017-Dec-15 15:31N 37°48' W 122°23'510.5
2017-Dec-15 15:00N 37°51' W 122°29'510.2
2017-Dec-15 14:30N 37°56' W 122°30'1 0.1
2017-Dec-15 05:13N 37°57' W 122°31'1 4.6
2017-Dec-15 05:00N 37°56' W 122°29'5 9.8
2017-Dec-15 04:31N 37°51' W 122°29'510.6
2017-Dec-15 04:00N 37°48' W 122°23'0 0.1
2017-Dec-15 02:31N 37°48' W 122°23'2 1.4
2017-Dec-15 01:01N 37°50' W 122°24'4 7.3
2017-Dec-15 00:30N 37°51' W 122°29'0 0.0
2017-Dec-14 18:30N 37°51' W 122°29'510.9
2017-Dec-14 18:00N 37°48' W 122°24'0 0.0
2017-Dec-14 17:31N 37°48' W 122°24'0 0.0
2017-Dec-14 17:00N 37°48' W 122°24'3 6.2
2017-Dec-14 16:30N 37°50' W 122°26'2 3.3
2017-Dec-14 16:01N 37°51' W 122°28'1 0.9
2017-Dec-14 15:01N 37°51' W 122°29'510.0
2017-Dec-14 14:30N 37°56' W 122°30'1 0.1
2017-Dec-14 05:24N 37°57' W 122°31'2 3.9
2017-Dec-14 05:00N 37°56' W 122°29'5 9.3
2017-Dec-14 04:30N 37°51' W 122°29'511.0
2017-Dec-14 04:00N 37°48' W 122°23'4 8.8
2017-Dec-14 03:30N 37°51' W 122°27'2 4.3
2017-Dec-14 03:00N 37°50' W 122°25'2 4.9
2017-Dec-14 02:30N 37°48' W 122°23'510.7
2017-Dec-14 02:00N 37°51' W 122°29'510.8
2017-Dec-14 01:30N 37°48' W 122°24'2 4.5
2017-Dec-14 01:00N 37°50' W 122°25'4 7.2
2017-Dec-14 00:30N 37°51' W 122°29'510.9
2017-Dec-14 00:00N 37°48' W 122°24'4 8.5
2017-Dec-13 23:30N 37°51' W 122°27'1 2.4
2017-Dec-13 23:00N 37°51' W 122°28'510.5
2017-Dec-13 22:31N 37°48' W 122°24'510.6
2017-Dec-13 22:01N 37°51' W 122°29'0 0.2
2017-Dec-13 21:30N 37°51' W 122°29'510.7
2017-Dec-13 21:01N 37°48' W 122°23'2 4.6
2017-Dec-13 20:30N 37°50' W 122°25'3 6.1
2017-Dec-13 20:00N 37°51' W 122°29'510.9
2017-Dec-13 19:30N 37°48' W 122°24'510.1
2017-Dec-13 19:01N 37°51' W 122°28'0 0.9
2017-Dec-13 18:30N 37°51' W 122°29'510.9
2017-Dec-13 18:00N 37°48' W 122°24'0 0.0
2017-Dec-13 17:30N 37°48' W 122°24'0 0.0
2017-Dec-13 17:00N 37°48' W 122°24'3 6.4
2017-Dec-13 16:31N 37°50' W 122°26'1 1.5
2017-Dec-13 16:00N 37°51' W 122°27'4 7.2
2017-Dec-13 15:30N 37°48' W 122°23'510.4
2017-Dec-13 15:00N 37°51' W 122°29'510.1
2017-Dec-13 14:30N 37°56' W 122°30'0 0.0
2017-Dec-13 05:01N 37°57' W 122°30'012.2
2017-Dec-13 05:00N 37°56' W 122°30'510.8
2017-Dec-13 04:30N 37°51' W 122°28'5 9.5
2017-Dec-13 04:00N 37°48' W 122°23'3 6.1
2017-Dec-13 03:30N 37°50' W 122°26'1 1.0
2017-Dec-13 03:00N 37°51' W 122°26'3 6.4
2017-Dec-13 02:30N 37°48' W 122°23'510.4
2017-Dec-13 02:00N 37°51' W 122°29'510.9
2017-Dec-13 01:30N 37°48' W 122°24'2 3.9
2017-Dec-13 01:01N 37°49' W 122°25'4 7.3
2017-Dec-13 00:31N 37°51' W 122°29'510.8
2017-Dec-13 00:00N 37°48' W 122°24'3 7.0
2017-Dec-12 23:30N 37°50' W 122°27'2 4.0
2017-Dec-12 23:01N 37°51' W 122°29'510.8
2017-Dec-12 22:30N 37°48' W 122°24'510.7
2017-Dec-12 22:00N 37°51' W 122°29'2 3.8
2017-Dec-12 21:30N 37°52' W 122°26'510.7
2017-Dec-12 21:00N 37°57' W 122°30'0 0.1
2017-Dec-12 19:47N 37°57' W 122°31'2 6.8
2017-Dec-12 19:30N 37°56' W 122°28'713.2
2017-Dec-12 19:00N 37°50' W 122°24'3 5.1
2017-Dec-12 18:31N 37°48' W 122°24'0 0.0
2017-Dec-12 18:01N 37°48' W 122°24'0 0.2
2017-Dec-12 17:30N 37°48' W 122°24'0 0.2
2017-Dec-12 17:01N 37°48' W 122°24'4 7.6
2017-Dec-12 16:30N 37°51' W 122°27'1 1.3
2017-Dec-12 16:00N 37°51' W 122°26'3 5.5
2017-Dec-12 15:31N 37°49' W 122°23'4 8.8
2017-Dec-12 15:00N 37°51' W 122°28'510.8
2017-Dec-12 14:30N 37°56' W 122°30'0 0.0
2017-Dec-12 05:12N 37°57' W 122°31'1 4.7
2017-Dec-12 05:00N 37°56' W 122°30'510.1
2017-Dec-12 04:31N 37°51' W 122°28'510.4
2017-Dec-12 04:01N 37°48' W 122°23'3 6.0
2017-Dec-12 03:30N 37°50' W 122°26'0 1.0
2017-Dec-12 03:00N 37°51' W 122°25'3 5.8
2017-Dec-12 02:31N 37°48' W 122°23'510.5
2017-Dec-12 02:00N 37°51' W 122°29'510.8
2017-Dec-12 01:30N 37°48' W 122°24'2 4.3
2017-Dec-12 01:00N 37°50' W 122°25'3 6.9
2017-Dec-12 00:30N 37°51' W 122°29'510.9
2017-Dec-12 00:00N 37°48' W 122°24'4 7.8
2017-Dec-11 23:30N 37°51' W 122°27'2 3.3
2017-Dec-11 23:00N 37°51' W 122°29'510.8
2017-Dec-11 22:30N 37°48' W 122°24'510.6
2017-Dec-11 22:01N 37°51' W 122°28'0 0.3
2017-Dec-11 21:30N 37°51' W 122°29'510.9
2017-Dec-11 21:01N 37°48' W 122°23'2 4.8
2017-Dec-11 20:31N 37°50' W 122°25'3 5.8
2017-Dec-11 20:00N 37°51' W 122°28'510.4
2017-Dec-11 19:30N 37°48' W 122°24'510.5
2017-Dec-11 19:01N 37°51' W 122°28'0 0.1
2017-Dec-11 18:30N 37°51' W 122°28'510.5
2017-Dec-11 18:01N 37°48' W 122°23'1 2.3
2017-Dec-11 17:31N 37°49' W 122°24'4 8.3
2017-Dec-11 17:00N 37°52' W 122°27'510.7
2017-Dec-11 16:30N 37°48' W 122°24'510.8
2017-Dec-11 16:00N 37°52' W 122°27'4 7.5
2017-Dec-11 15:31N 37°50' W 122°24'1 1.6
2017-Dec-11 15:00N 37°50' W 122°25'2 4.7
2017-Dec-11 14:30N 37°51' W 122°27'3 6.2
2017-Dec-11 14:01N 37°49' W 122°24'5 9.8
2017-Dec-11 13:30N 37°54' W 122°27'4 0.4
2017-Dec-11 03:09N 37°57' W 122°30'211.1
2017-Dec-11 03:00N 37°56' W 122°28'917.6
2017-Dec-11 02:31N 37°48' W 122°23'0 0.4
2017-Dec-11 02:00N 37°48' W 122°23'510.5
2017-Dec-11 01:30N 37°51' W 122°29'1 1.5
2017-Dec-11 01:00N 37°51' W 122°28'5 9.6
2017-Dec-11 00:31N 37°48' W 122°24'3 6.6
2017-Dec-11 00:01N 37°50' W 122°26'2 4.4
2017-Dec-10 23:30N 37°51' W 122°29'4 8.9
2017-Dec-10 23:00N 37°49' W 122°24'1 1.1
2017-Dec-10 22:30N 37°49' W 122°24'5 9.4
2017-Dec-10 22:00N 37°51' W 122°29'510.9
2017-Dec-10 21:31N 37°48' W 122°23'2 4.2
2017-Dec-10 21:00N 37°50' W 122°25'3 6.7
2017-Dec-10 20:30N 37°51' W 122°29'510.9
2017-Dec-10 20:00N 37°48' W 122°24'4 7.8
2017-Dec-10 19:31N 37°51' W 122°27'1 1.7
2017-Dec-10 19:00N 37°51' W 122°28'5 9.5
2017-Dec-10 18:31N 37°48' W 122°24'611.1
2017-Dec-10 18:00N 37°53' W 122°26'510.1
2017-Dec-10 17:30N 37°57' W 122°30'1 0.0
2017-Dec-10 04:11N 37°56' W 122°30'210.6
2017-Dec-10 04:00N 37°56' W 122°28'816.9
2017-Dec-10 03:30N 37°48' W 122°24'4 7.8
2017-Dec-10 03:01N 37°50' W 122°27'2 3.1
2017-Dec-10 02:30N 37°51' W 122°29'510.9
2017-Dec-10 02:00N 37°48' W 122°24'0 0.2
2017-Dec-10 01:30N 37°48' W 122°24'918.1
2017-Dec-10 01:01N 37°56' W 122°29'2 3.1
2017-Dec-10 00:30N 37°57' W 122°30'714.9
2017-Dec-10 00:00N 37°51' W 122°24'3 6.8
2017-Dec-09 23:31N 37°48' W 122°24'0 0.1
2017-Dec-09 23:00N 37°48' W 122°24'0 0.0
2017-Dec-09 22:30N 37°48' W 122°24'815.7
2017-Dec-09 22:00N 37°55' W 122°27'3 5.7
2017-Dec-09 21:29N 37°57' W 122°30'612.0
2017-Dec-09 21:01N 37°53' W 122°25'510.1
2017-Dec-09 20:31N 37°48' W 122°24'918.0
2017-Dec-09 20:00N 37°56' W 122°29'2 3.3
2017-Dec-09 19:30N 37°57' W 122°30'0 0.0
2017-Dec-09 19:00N 37°57' W 122°30'0 0.0
2017-Dec-09 05:37N 37°57' W 122°30'0 0.0
2017-Dec-09 05:30N 37°57' W 122°30'1 2.5
2017-Dec-09 05:00N 37°56' W 122°29'5 9.4
2017-Dec-09 04:31N 37°51' W 122°29'510.8
2017-Dec-09 04:01N 37°48' W 122°24'5 9.0
2017-Dec-09 03:31N 37°51' W 122°28'1 2.9
2017-Dec-09 03:00N 37°51' W 122°26'3 5.4
2017-Dec-09 02:31N 37°49' W 122°23'5 9.8
2017-Dec-09 02:00N 37°51' W 122°29'511.1
2017-Dec-09 01:30N 37°48' W 122°24'2 4.7
2017-Dec-09 01:00N 37°50' W 122°25'3 6.8
2017-Dec-09 00:30N 37°51' W 122°28'510.5
2017-Dec-09 00:00N 37°48' W 122°24'510.6
2017-Dec-08 23:30N 37°51' W 122°28'3 5.6
2017-Dec-08 23:00N 37°53' W 122°26'5 9.2
2017-Dec-08 22:30N 37°57' W 122°31'  

Dump ship's entire track history